This is the latest recevied weather packets stored in our database for station/object KY4EF. If no packets are shown the sender has not sent any weather packets the latest 10 day(s).
| Time | Temp. | Humidity | Pressure | Rain* | Wind** | Luminosity | Snow |
|---|---|---|---|---|---|---|---|
| 1777689533 | 11.11° C | 77% | 1012.8 hPa | 0 mm | - | 0 W/m² | - |
| 1777689230 | 11.67° C | 77% | 1012.8 hPa | 0 mm | - | 0 W/m² | - |
| 1777688928 | 11.67° C | 76% | 1012.8 hPa | 0 mm | - | 0 W/m² | - |
| 1777688624 | 11.67° C | 76% | 1013 hPa | 0 mm | - | 0 W/m² | - |
| 1777688321 | 11.67° C | 76% | 1012.9 hPa | 0 mm | - | 0 W/m² | - |
| 1777674382 | 17.78° C | 39% | 1010.8 hPa | 0 mm | - | 72 W/m² | - |
| 1777674079 | 17.78° C | 40% | 1010.4 hPa | 0 mm | - | 58 W/m² | - |
| 1777673776 | 18.33° C | 38% | 1010.8 hPa | 0 mm | - | 59 W/m² | - |
| 1777672260 | 18.89° C | 40% | 1011 hPa | 0 mm | - | 137 W/m² | - |
| 1777671955 | 18.89° C | 43% | 1011.3 hPa | 0 mm | - | 183 W/m² | - |
| 1777671348 | 18.89° C | 42% | 1011.2 hPa | 0 mm | - | 180 W/m² | - |
| 1777671044 | 19.44° C | 41% | 1011.2 hPa | 0 mm | - | 161 W/m² | - |
| 1777670740 | 20° C | 44% | 1011.3 hPa | 0 mm | - | 172 W/m² | - |
| 1777670437 | 20° C | 42% | 1011.4 hPa | 0 mm | - | 230 W/m² | - |
| 1777670134 | 20.56° C | 42% | 1011.1 hPa | 0 mm | - | 244 W/m² | - |
| 1777669832 | 21.11° C | 41% | 1011.2 hPa | 0 mm | - | 189 W/m² | - |
| 1777669528 | 20.56° C | 43% | 1011.2 hPa | 0 mm | - | 256 W/m² | - |
| 1777669227 | 20.56° C | 40% | 1011.2 hPa | 0 mm | - | 296 W/m² | - |
| 1777668922 | 20.56° C | 42% | 1011.1 hPa | 0 mm | - | 304 W/m² | - |
| 1777667709 | 20.56° C | 44% | 1011.4 hPa | 0 mm | - | 326 W/m² | - |
| 1777667103 | 20° C | 44% | 1011.4 hPa | 0 mm | - | 327 W/m² | - |
| 1777666799 | 20.56° C | 44% | 1011.3 hPa | 0 mm | - | 284 W/m² | - |
| 1777664372 | 22.22° C | 42% | 1011.6 hPa | 0 mm | - | 269 W/m² | - |
| 1777661339 | 20° C | 47% | 1011.6 hPa | 0 mm | - | 422 W/m² | - |
| 1777660730 | 19.44° C | 48% | 1011.5 hPa | 0 mm | - | 276 W/m² | - |
* Rain latest hour (hover to see other rain measurements)
** Current wind speed in m/s (hover to see current wind gust speed)